^^
Datos históricos de la estación: Murcia-Puente Tocinos
Diario Informe para Marzo 10, 2019 Unidades:  Ambas    Inglés   Métrico
Diario Semanal Mensual Anual Configurable
  Máximo: Mínimo: Media:
Temperatura: 80.2 °F /  26.8 °C 47.7 °F /  8.7 °C 62.8 °F /  17.1 °C
Punto de rocio: 50.5 °F /  10.3 °C 37.2 °F /  2.9 °C 42.3 °F /  5.7 °C
Humedad: 72% 27% 50%
Velocidad viento: 9.2mph /  14.8km/h - 3.9mph /  6.2km/h
Racha viento: 16mph /  25.7km/h - -
Viento- - SSW
Presión: 30.4 in /  1030.1 hPa 30.2 in /  1022.3 hPa -
Precipitación: 0 in /  0.0 mm    
Historical Graphs
 
 
Tabla de datos para Marzo 10, 2019
Hora Temperatura Punto de rocio Presión Viento Velocidad viento Racha viento Humedad Intensidad lluvia(por hora) Nubes
00:04 55.2 °F /  12.9 °C 43.7 °F /  6.5 °C 30.4in /  1030.1hPa SW 3.1mph /  5.0km/h 3.5mph /  5.6km/h 65% 0in /  0.0mm CLR
00:09 55.2 °F /  12.9 °C 43.2 °F /  6.2 °C 30.4in /  1030.1hPa SW 2.4mph /  3.9km/h 4.6mph /  7.4km/h 64% 0in /  0.0mm CLR
00:14 55.2 °F /  12.9 °C 42.8 °F /  6.0 °C 30.4in /  1030.1hPa SE 2.4mph /  3.9km/h 4.6mph /  7.4km/h 63% 0in /  0.0mm CLR
00:19 55 °F /  12.8 °C 42.6 °F /  5.9 °C 30.4in /  1030.0hPa SSW 3.1mph /  5.0km/h 4.6mph /  7.4km/h 63% 0in /  0.0mm CLR
00:24 55 °F /  12.8 °C 42.3 °F /  5.7 °C 30.4in /  1030.0hPa SW 3.1mph /  5.0km/h 4.6mph /  7.4km/h 62% 0in /  0.0mm CLR
00:29 55 °F /  12.8 °C 42.3 °F /  5.7 °C 30.4in /  1030.0hPa SW 3.1mph /  5.0km/h 3.5mph /  5.6km/h 62% 0in /  0.0mm CLR
00:34 55 °F /  12.8 °C 41.7 °F /  5.4 °C 30.4in /  1029.8hPa SW 3.1mph /  5.0km/h 3.5mph /  5.6km/h 61% 0in /  0.0mm CLR
00:39 55 °F /  12.8 °C 41.7 °F /  5.4 °C 30.4in /  1029.8hPa SW 2.9mph /  4.7km/h 4.6mph /  7.4km/h 61% 0in /  0.0mm CLR
00:44 54.9 °F /  12.7 °C 41.2 °F /  5.1 °C 30.4in /  1029.8hPa SW 2.9mph /  4.7km/h 6.9mph /  11.1km/h 60% 0in /  0.0mm CLR
00:49 54.9 °F /  12.7 °C 40.8 °F /  4.9 °C 30.4in /  1029.7hPa South 3.6mph /  5.8km/h 4.6mph /  7.4km/h 59% 0in /  0.0mm CLR
00:54 54.7 °F /  12.6 °C 40.6 °F /  4.8 °C 30.4in /  1029.7hPa SSW 3.6mph /  5.8km/h 6.9mph /  11.1km/h 59% 0in /  0.0mm CLR
00:59 54.5 °F /  12.5 °C 40.8 °F /  4.9 °C 30.4in /  1029.7hPa SSW 4mph /  6.4km/h 6.9mph /  11.1km/h 60% 0in /  0.0mm CLR
01:04 54.1 °F /  12.3 °C 40.6 °F /  4.8 °C 30.4in /  1029.7hPa South 4mph /  6.4km/h 6.9mph /  11.1km/h 60% 0in /  0.0mm CLR
01:09 54 °F /  12.2 °C 40.8 °F /  4.9 °C 30.4in /  1029.7hPa South 4.7mph /  7.6km/h 5.8mph /  9.3km/h 61% 0in /  0.0mm CLR
01:14 53.8 °F /  12.1 °C 41.2 °F /  5.1 °C 30.4in /  1029.7hPa South 4.7mph /  7.6km/h 5.8mph /  9.3km/h 62% 0in /  0.0mm CLR
01:19 53.8 °F /  12.1 °C 41.5 °F /  5.3 °C 30.4in /  1029.6hPa WSW 4.3mph /  6.9km/h 6.4mph /  10.3km/h 63% 0in /  0.0mm CLR
01:24 53.8 °F /  12.1 °C 41.5 °F /  5.3 °C 30.4in /  1029.6hPa SSW 4.3mph /  6.9km/h 4.6mph /  7.4km/h 63% 0in /  0.0mm CLR
01:29 53.8 °F /  12.1 °C 41.5 °F /  5.3 °C 30.4in /  1029.6hPa WSW 4mph /  6.4km/h 4.6mph /  7.4km/h 63% 0in /  0.0mm CLR
01:34 53.8 °F /  12.1 °C 41.5 °F /  5.3 °C 30.4in /  1029.5hPa SW 4mph /  6.4km/h 8.1mph /  13.0km/h 63% 0in /  0.0mm CLR
01:39 53.8 °F /  12.1 °C 41.5 °F /  5.3 °C 30.4in /  1029.5hPa WSW 4mph /  6.4km/h 4.6mph /  7.4km/h 63% 0in /  0.0mm CLR
01:44 53.6 °F /  12.0 °C 41.7 °F /  5.4 °C 30.4in /  1029.5hPa WSW 4mph /  6.4km/h 4.6mph /  7.4km/h 64% 0in /  0.0mm CLR
01:49 53.4 °F /  11.9 °C 41.5 °F /  5.3 °C 30.4in /  1029.5hPa SSW 3.1mph /  5.0km/h 6.9mph /  11.1km/h 64% 0in /  0.0mm CLR
01:54 53.4 °F /  11.9 °C 41.5 °F /  5.3 °C 30.4in /  1029.5hPa SW 3.1mph /  5.0km/h 6.9mph /  11.1km/h 64% 0in /  0.0mm CLR
01:59 53.2 °F /  11.8 °C 41.7 °F /  5.4 °C 30.4in /  1029.5hPa WSW 4.7mph /  7.6km/h 5.8mph /  9.3km/h 65% 0in /  0.0mm CLR
02:04 53.2 °F /  11.8 °C 41.7 °F /  5.4 °C 30.4in /  1029.4hPa SW 4.7mph /  7.6km/h 5.2mph /  8.4km/h 65% 0in /  0.0mm CLR
02:09 53.1 °F /  11.7 °C 41.5 °F /  5.3 °C 30.4in /  1029.4hPa SSW 4mph /  6.4km/h 4.6mph /  7.4km/h 65% 0in /  0.0mm CLR
02:14 53.1 °F /  11.7 °C 41.5 °F /  5.3 °C 30.4in /  1029.4hPa SW 4mph /  6.4km/h 4.6mph /  7.4km/h 65% 0in /  0.0mm CLR
02:19 53.1 °F /  11.7 °C 41.5 °F /  5.3 °C 30.4in /  1029.2hPa SW 3.1mph /  5.0km/h 2.4mph /  3.9km/h 65% 0in /  0.0mm CLR
02:24 53.1 °F /  11.7 °C 41.5 °F /  5.3 °C 30.4in /  1029.2hPa SW 3.1mph /  5.0km/h 3.5mph /  5.6km/h 65% 0in /  0.0mm CLR
02:29 53.1 °F /  11.7 °C 41.5 °F /  5.3 °C 30.4in /  1029.2hPa SW 2mph /  3.2km/h 3.5mph /  5.6km/h 65% 0in /  0.0mm CLR
02:34 52.9 °F /  11.6 °C 41.4 °F /  5.2 °C 30.4in /  1029.1hPa SW 2mph /  3.2km/h 4.6mph /  7.4km/h 65% 0in /  0.0mm CLR
02:39 52.5 °F /  11.4 °C 41.2 °F /  5.1 °C 30.4in /  1029.1hPa SW 2.4mph /  3.9km/h 3.5mph /  5.6km/h 65% 0in /  0.0mm CLR
02:44 52.3 °F /  11.3 °C 40.5 °F /  4.7 °C 30.4in /  1029.1hPa SSW 2.4mph /  3.9km/h 4.6mph /  7.4km/h 64% 0in /  0.0mm CLR
02:49 52.3 °F /  11.3 °C 40.5 °F /  4.7 °C 30.4in /  1029.0hPa SW 2.4mph /  3.9km/h 4.6mph /  7.4km/h 64% 0in /  0.0mm CLR
02:54 52.3 °F /  11.3 °C 39.7 °F /  4.3 °C 30.4in /  1029.0hPa SW 2.4mph /  3.9km/h 6.2mph /  10.0km/h 62% 0in /  0.0mm CLR
02:59 52.3 °F /  11.3 °C 39.7 °F /  4.3 °C 30.4in /  1029.0hPa SW 3.6mph /  5.8km/h 5.8mph /  9.3km/h 62% 0in /  0.0mm CLR
03:04 52.3 °F /  11.3 °C 39.4 °F /  4.1 °C 30.4in /  1028.7hPa WSW 3.6mph /  5.8km/h 6.9mph /  11.1km/h 61% 0in /  0.0mm CLR
03:09 52.3 °F /  11.3 °C 39.7 °F /  4.3 °C 30.4in /  1028.7hPa SW 4.3mph /  6.9km/h 9.2mph /  14.8km/h 62% 0in /  0.0mm CLR
03:14 52.2 °F /  11.2 °C 39.6 °F /  4.2 °C 30.4in /  1028.7hPa SW 4.3mph /  6.9km/h 5.8mph /  9.3km/h 62% 0in /  0.0mm CLR
03:19 52.2 °F /  11.2 °C 39.6 °F /  4.2 °C 30.4in /  1028.5hPa SSW 4.7mph /  7.6km/h 5.8mph /  9.3km/h 62% 0in /  0.0mm CLR
03:24 52.2 °F /  11.2 °C 39 °F /  3.9 °C 30.4in /  1028.5hPa SW 4.7mph /  7.6km/h 6.9mph /  11.1km/h 61% 0in /  0.0mm CLR
03:29 52 °F /  11.1 °C 38.5 °F /  3.6 °C 30.4in /  1028.5hPa SSW 5.2mph /  8.4km/h 6.9mph /  11.1km/h 60% 0in /  0.0mm CLR
03:34 52 °F /  11.1 °C 38.5 °F /  3.6 °C 30.4in /  1028.5hPa SSW 5.2mph /  8.4km/h 6.9mph /  11.1km/h 60% 0in /  0.0mm CLR
03:39 51.6 °F /  10.9 °C 38.1 °F /  3.4 °C 30.4in /  1028.5hPa SSW 4.7mph /  7.6km/h 5.8mph /  9.3km/h 60% 0in /  0.0mm CLR
03:44 51.6 °F /  10.9 °C 38.1 °F /  3.4 °C 30.4in /  1028.5hPa South 4.7mph /  7.6km/h 5.4mph /  8.7km/h 60% 0in /  0.0mm CLR
03:49 51.4 °F /  10.8 °C 38.5 °F /  3.6 °C 30.4in /  1028.4hPa SSW 4.3mph /  6.9km/h 6.2mph /  10.0km/h 61% 0in /  0.0mm CLR
03:54 51.3 °F /  10.7 °C 38.3 °F /  3.5 °C 30.4in /  1028.4hPa South 4.3mph /  6.9km/h 7.6mph /  12.2km/h 61% 0in /  0.0mm CLR
03:59 51.1 °F /  10.6 °C 38.1 °F /  3.4 °C 30.4in /  1028.4hPa SSW 4.7mph /  7.6km/h 5.8mph /  9.3km/h 61% 0in /  0.0mm CLR
04:04 50.9 °F /  10.5 °C 37.9 °F /  3.3 °C 30.4in /  1028.4hPa SSW 4.7mph /  7.6km/h 5.8mph /  9.3km/h 61% 0in /  0.0mm CLR
04:09 50.9 °F /  10.5 °C 37.9 °F /  3.3 °C 30.4in /  1028.4hPa SW 4.7mph /  7.6km/h 6.2mph /  10.0km/h 61% 0in /  0.0mm CLR
04:14 50.9 °F /  10.5 °C 37.9 °F /  3.3 °C 30.4in /  1028.4hPa SW 4.7mph /  7.6km/h 6.9mph /  11.1km/h 61% 0in /  0.0mm CLR
04:19 50.9 °F /  10.5 °C 37.9 °F /  3.3 °C 30.4in /  1028.3hPa SW 4.3mph /  6.9km/h 5.8mph /  9.3km/h 61% 0in /  0.0mm CLR
04:24 51.1 °F /  10.6 °C 38.1 °F /  3.4 °C 30.4in /  1028.3hPa SSW 4.3mph /  6.9km/h 6.9mph /  11.1km/h 61% 0in /  0.0mm CLR
04:29 51.1 °F /  10.6 °C 38.1 °F /  3.4 °C 30.4in /  1028.3hPa SW 4.3mph /  6.9km/h 3.5mph /  5.6km/h 61% 0in /  0.0mm CLR
04:34 51.1 °F /  10.6 °C 38.1 °F /  3.4 °C 30.4in /  1028.1hPa SW 4.3mph /  6.9km/h 4.6mph /  7.4km/h 61% 0in /  0.0mm CLR
04:39 51.1 °F /  10.6 °C 38.1 °F /  3.4 °C 30.4in /  1028.1hPa WSW 2.9mph /  4.7km/h 4.6mph /  7.4km/h 61% 0in /  0.0mm CLR
04:44 50.9 °F /  10.5 °C 37.9 °F /  3.3 °C 30.4in /  1028.1hPa WSW 2.9mph /  4.7km/h 4.6mph /  7.4km/h 61% 0in /  0.0mm CLR
04:49 50.7 °F /  10.4 °C 37.8 °F /  3.2 °C 30.4in /  1028.1hPa WSW 2.9mph /  4.7km/h 5.2mph /  8.4km/h 61% 0in /  0.0mm CLR
04:54 50.7 °F /  10.4 °C 37.8 °F /  3.2 °C 30.4in /  1028.1hPa WSW 2.9mph /  4.7km/h 6.9mph /  11.1km/h 61% 0in /  0.0mm CLR
04:59 50.7 °F /  10.4 °C 37.8 °F /  3.2 °C 30.4in /  1028.1hPa WSW 4mph /  6.4km/h 5.8mph /  9.3km/h 61% 0in /  0.0mm CLR
05:04 50.7 °F /  10.4 °C 37.8 °F /  3.2 °C 30.4in /  1028.1hPa WSW 4mph /  6.4km/h 8.1mph /  13.0km/h 61% 0in /  0.0mm CLR
05:09 50.7 °F /  10.4 °C 37.8 °F /  3.2 °C 30.4in /  1028.1hPa WSW 4.7mph /  7.6km/h 4.6mph /  7.4km/h 61% 0in /  0.0mm CLR
05:14 50.7 °F /  10.4 °C 37.8 °F /  3.2 °C 30.4in /  1028.1hPa WSW 4.7mph /  7.6km/h 4.6mph /  7.4km/h 61% 0in /  0.0mm CLR
05:19 50.7 °F /  10.4 °C 37.8 °F /  3.2 °C 30.4in /  1028.2hPa WSW 2.4mph /  3.9km/h 4.6mph /  7.4km/h 61% 0in /  0.0mm CLR
05:24 50.7 °F /  10.4 °C 37.8 °F /  3.2 °C 30.4in /  1028.2hPa South 2.4mph /  3.9km/h 3.5mph /  5.6km/h 61% 0in /  0.0mm CLR
05:29 50.5 °F /  10.3 °C 38.5 °F /  3.6 °C 30.4in /  1028.2hPa South 2mph /  3.2km/h 2mph /  3.2km/h 63% 0in /  0.0mm CLR
05:34 50.4 °F /  10.2 °C 38.1 °F /  3.4 °C 30.4in /  1028.1hPa South 2mph /  3.2km/h 2.9mph /  4.7km/h 63% 0in /  0.0mm CLR
05:39 50.4 °F /  10.2 °C 38.7 °F /  3.7 °C 30.4in /  1028.1hPa South 1.8mph /  2.9km/h 3.5mph /  5.6km/h 64% 0in /  0.0mm CLR
05:44 50.2 °F /  10.1 °C 38.5 °F /  3.6 °C 30.4in /  1028.1hPa South 1.8mph /  2.9km/h 4.6mph /  7.4km/h 64% 0in /  0.0mm CLR
05:49 49.8 °F /  9.9 °C 38.1 °F /  3.4 °C 30.4in /  1028.1hPa SSE 2.9mph /  4.7km/h 4.6mph /  7.4km/h 64% 0in /  0.0mm CLR
05:54 49.6 °F /  9.8 °C 38.3 °F /  3.5 °C 30.4in /  1028.1hPa SSE 2.9mph /  4.7km/h 3.6mph /  5.8km/h 65% 0in /  0.0mm CLR
05:59 49.5 °F /  9.7 °C 38.1 °F /  3.4 °C 30.4in /  1028.1hPa South 2.9mph /  4.7km/h 4.6mph /  7.4km/h 65% 0in /  0.0mm CLR
06:04 49.5 °F /  9.7 °C 38.7 °F /  3.7 °C 30.4in /  1028.0hPa South 2.9mph /  4.7km/h 4.6mph /  7.4km/h 66% 0in /  0.0mm CLR
06:09 49.3 °F /  9.6 °C 38.5 °F /  3.6 °C 30.4in /  1028.0hPa South 2.4mph /  3.9km/h 3.1mph /  5.0km/h 66% 0in /  0.0mm CLR
06:14 49.3 °F /  9.6 °C 38.5 °F /  3.6 °C 30.4in /  1028.0hPa South 2.4mph /  3.9km/h 3.5mph /  5.6km/h 66% 0in /  0.0mm CLR
06:19 49.3 °F /  9.6 °C 38.8 °F /  3.8 °C 30.4in /  1028.0hPa South 2.4mph /  3.9km/h 4.6mph /  7.4km/h 67% 0in /  0.0mm CLR
06:24 48.9 °F /  9.4 °C 38.5 °F /  3.6 °C 30.4in /  1028.0hPa SSE 2.4mph /  3.9km/h 4.6mph /  7.4km/h 67% 0in /  0.0mm CLR
06:29 48.7 °F /  9.3 °C 38.7 °F /  3.7 °C 30.4in /  1028.0hPa SSE 3.6mph /  5.8km/h 5.8mph /  9.3km/h 68% 0in /  0.0mm CLR
06:34 48.4 °F /  9.1 °C 38.7 °F /  3.7 °C 30.4in /  1028.0hPa SSE 3.6mph /  5.8km/h 6.9mph /  11.1km/h 69% 0in /  0.0mm CLR
06:39 48 °F /  8.9 °C 38.3 °F /  3.5 °C 30.4in /  1028.0hPa SSE 4.7mph /  7.6km/h 6.9mph /  11.1km/h 69% 0in /  0.0mm CLR
06:44 47.8 °F /  8.8 °C 38.5 °F /  3.6 °C 30.4in /  1028.0hPa SE 4.7mph /  7.6km/h 5.4mph /  8.7km/h 70% 0in /  0.0mm CLR
06:49 47.7 °F /  8.7 °C 38.5 °F /  3.6 °C 30.4in /  1028.1hPa South 4.7mph /  7.6km/h 6.9mph /  11.1km/h 70% 0in /  0.0mm CLR
06:54 47.8 °F /  8.8 °C 38.1 °F /  3.4 °C 30.4in /  1028.1hPa South 4.7mph /  7.6km/h 6.9mph /  11.1km/h 69% 0in /  0.0mm CLR
06:59 47.8 °F /  8.8 °C 38.1 °F /  3.4 °C 30.4in /  1028.1hPa SSW 5.2mph /  8.4km/h 5.9mph /  9.5km/h 69% 0in /  0.0mm CLR
07:04 48 °F /  8.9 °C 37.9 °F /  3.3 °C 30.4in /  1028.0hPa SSW 5.2mph /  8.4km/h 5.9mph /  9.5km/h 68% 0in /  0.0mm CLR
07:09 48.2 °F /  9.0 °C 37.8 °F /  3.2 °C 30.4in /  1028.0hPa SW 4.7mph /  7.6km/h 5.8mph /  9.3km/h 67% 0in /  0.0mm CLR
07:14 48.6 °F /  9.2 °C 38.1 °F /  3.4 °C 30.4in /  1028.0hPa SW 4.7mph /  7.6km/h 5.2mph /  8.4km/h 67% 0in /  0.0mm CLR
07:19 48.7 °F /  9.3 °C 37.9 °F /  3.3 °C 30.4in /  1027.9hPa WSW 3.6mph /  5.8km/h 6.9mph /  11.1km/h 66% 0in /  0.0mm CLR
07:24 48.7 °F /  9.3 °C 37.6 °F /  3.1 °C 30.4in /  1027.9hPa SSW 3.6mph /  5.8km/h 4.6mph /  7.4km/h 65% 0in /  0.0mm CLR
07:29 48.9 °F /  9.4 °C 37.8 °F /  3.2 °C 30.4in /  1027.9hPa WSW 3.6mph /  5.8km/h 5.9mph /  9.5km/h 65% 0in /  0.0mm CLR
07:34 48.9 °F /  9.4 °C 37.2 °F /  2.9 °C 30.4in /  1028.0hPa SW 3.6mph /  5.8km/h 4.6mph /  7.4km/h 64% 0in /  0.0mm CLR
07:39 48.9 °F /  9.4 °C 37.2 °F /  2.9 °C 30.4in /  1028.0hPa SW 4mph /  6.4km/h 4.6mph /  7.4km/h 64% 0in /  0.0mm CLR
07:44 49.1 °F /  9.5 °C 37.4 °F /  3.0 °C 30.4in /  1028.0hPa SSW 4mph /  6.4km/h 5.8mph /  9.3km/h 64% 0in /  0.0mm CLR
07:49 49.3 °F /  9.6 °C 37.2 °F /  2.9 °C 30.4in /  1027.9hPa SW 3.1mph /  5.0km/h 6.9mph /  11.1km/h 63% 0in /  0.0mm CLR
07:54 49.5 °F /  9.7 °C 37.4 °F /  3.0 °C 30.4in /  1027.9hPa WSW 3.1mph /  5.0km/h 6.9mph /  11.1km/h 63% 0in /  0.0mm CLR
07:59 49.6 °F /  9.8 °C 37.6 °F /  3.1 °C 30.4in /  1027.9hPa SW 4.7mph /  7.6km/h 6.9mph /  11.1km/h 63% 0in /  0.0mm CLR
08:04 50 °F /  10.0 °C 37.6 °F /  3.1 °C 30.4in /  1028.0hPa WSW 4.7mph /  7.6km/h 6.9mph /  11.1km/h 62% 0in /  0.0mm CLR
08:09 50.2 °F /  10.1 °C 37.8 °F /  3.2 °C 30.4in /  1028.0hPa South 4.3mph /  6.9km/h 4.6mph /  7.4km/h 62% 0in /  0.0mm CLR
08:14 50.4 °F /  10.2 °C 37.8 °F /  3.2 °C 30.4in /  1028.0hPa SSW 4.3mph /  6.9km/h 4.6mph /  7.4km/h 62% 0in /  0.0mm CLR
08:19 50.5 °F /  10.3 °C 37.9 °F /  3.3 °C 30.4in /  1028.0hPa SSW 3.1mph /  5.0km/h 4.6mph /  7.4km/h 62% 0in /  0.0mm CLR
08:24 50.7 °F /  10.4 °C 38.7 °F /  3.7 °C 30.4in /  1028.0hPa South 3.1mph /  5.0km/h 5.2mph /  8.4km/h 63% 0in /  0.0mm CLR
08:29 50.9 °F /  10.5 °C 38.3 °F /  3.5 °C 30.4in /  1028.0hPa SW 3.1mph /  5.0km/h 5.2mph /  8.4km/h 62% 0in /  0.0mm CLR
08:34 51.1 °F /  10.6 °C 38.5 °F /  3.6 °C 30.4in /  1028.2hPa SW 3.1mph /  5.0km/h 6.9mph /  11.1km/h 62% 0in /  0.0mm CLR
08:39 51.3 °F /  10.7 °C 38.7 °F /  3.7 °C 30.4in /  1028.2hPa SW 4.3mph /  6.9km/h 6.2mph /  10.0km/h 62% 0in /  0.0mm CLR
08:44 51.4 °F /  10.8 °C 38.8 °F /  3.8 °C 30.4in /  1028.2hPa SW 4.3mph /  6.9km/h 4.6mph /  7.4km/h 62% 0in /  0.0mm CLR
08:49 51.6 °F /  10.9 °C 38.1 °F /  3.4 °C 30.4in /  1028.4hPa SW 4.3mph /  6.9km/h 8.1mph /  13.0km/h 60% 0in /  0.0mm CLR
08:54 52 °F /  11.1 °C 38.5 °F /  3.6 °C 30.4in /  1028.4hPa SW 4.3mph /  6.9km/h 5.8mph /  9.3km/h 60% 0in /  0.0mm CLR
08:59 52.2 °F /  11.2 °C 38.3 °F /  3.5 °C 30.4in /  1028.4hPa SW 4.7mph /  7.6km/h 5.2mph /  8.4km/h 59% 0in /  0.0mm CLR
09:04 52.3 °F /  11.3 °C 38.5 °F /  3.6 °C 30.4in /  1028.4hPa WSW 4.7mph /  7.6km/h 4.6mph /  7.4km/h 59% 0in /  0.0mm CLR
09:09 52.9 °F /  11.6 °C 38.5 °F /  3.6 °C 30.4in /  1028.4hPa SW 4mph /  6.4km/h 5.8mph /  9.3km/h 58% 0in /  0.0mm CLR
09:14 53.4 °F /  11.9 °C 38.7 °F /  3.7 °C 30.4in /  1028.4hPa SSW 4mph /  6.4km/h 4.7mph /  7.6km/h 57% 0in /  0.0mm CLR
09:19 54 °F /  12.2 °C 38.1 °F /  3.4 °C 30.4in /  1028.4hPa SSW 3.6mph /  5.8km/h 6.9mph /  11.1km/h 55% 0in /  0.0mm CLR
09:24 54.3 °F /  12.4 °C 38.5 °F /  3.6 °C 30.4in /  1028.4hPa SW 3.6mph /  5.8km/h 5.8mph /  9.3km/h 55% 0in /  0.0mm CLR
09:29 55 °F /  12.8 °C 38.1 °F /  3.4 °C 30.4in /  1028.4hPa SW 4.3mph /  6.9km/h 4.6mph /  7.4km/h 53% 0in /  0.0mm CLR
09:34 55.6 °F /  13.1 °C 38.1 °F /  3.4 °C 30.4in /  1028.4hPa WSW 4.3mph /  6.9km/h 4.6mph /  7.4km/h 52% 0in /  0.0mm CLR
09:39 56.3 °F /  13.5 °C 37.9 °F /  3.3 °C 30.4in /  1028.4hPa WSW 2.9mph /  4.7km/h 5.8mph /  9.3km/h 50% 0in /  0.0mm CLR
09:44 56.7 °F /  13.7 °C 38.1 °F /  3.4 °C 30.4in /  1028.4hPa WSW 2.9mph /  4.7km/h 4.6mph /  7.4km/h 50% 0in /  0.0mm CLR
09:49 56.8 °F /  13.8 °C 38.5 °F /  3.6 °C 30.4in /  1028.4hPa West 3.6mph /  5.8km/h 4.6mph /  7.4km/h 50% 0in /  0.0mm CLR
09:54 57.4 °F /  14.1 °C 38.5 °F /  3.6 °C 30.4in /  1028.4hPa SW 3.6mph /  5.8km/h 4.6mph /  7.4km/h 49% 0in /  0.0mm CLR
09:59 57.7 °F /  14.3 °C 38.7 °F /  3.7 °C 30.4in /  1028.4hPa WSW 3.1mph /  5.0km/h 4.6mph /  7.4km/h 49% 0in /  0.0mm CLR
10:04 58.1 °F /  14.5 °C 38.5 °F /  3.6 °C 30.4in /  1028.5hPa WNW 3.1mph /  5.0km/h 4.6mph /  7.4km/h 48% 0in /  0.0mm CLR
10:09 58.6 °F /  14.8 °C 38.5 °F /  3.6 °C 30.4in /  1028.5hPa SW 2.9mph /  4.7km/h 5.8mph /  9.3km/h 47% 0in /  0.0mm CLR
10:14 59.2 °F /  15.1 °C 38.8 °F /  3.8 °C 30.4in /  1028.5hPa SW 2.9mph /  4.7km/h 4.7mph /  7.6km/h 47% 0in /  0.0mm CLR
10:19 59.4 °F /  15.2 °C 39 °F /  3.9 °C 30.4in /  1028.3hPa SW 3.1mph /  5.0km/h 4.6mph /  7.4km/h 47% 0in /  0.0mm CLR
10:24 60.3 °F /  15.7 °C 39.4 °F /  4.1 °C 30.4in /  1028.3hPa SE 3.1mph /  5.0km/h 3.5mph /  5.6km/h 46% 0in /  0.0mm CLR
10:29 61.2 °F /  16.2 °C 39.6 °F /  4.2 °C 30.4in /  1028.3hPa SSW 2.4mph /  3.9km/h 4.6mph /  7.4km/h 45% 0in /  0.0mm CLR
10:34 61.9 °F /  16.6 °C 39.7 °F /  4.3 °C 30.4in /  1028.3hPa SSW 2.4mph /  3.9km/h 4.6mph /  7.4km/h 44% 0in /  0.0mm CLR
10:39 62.2 °F /  16.8 °C 39.9 °F /  4.4 °C 30.4in /  1028.3hPa SSW 3.1mph /  5.0km/h 5.9mph /  9.5km/h 44% 0in /  0.0mm CLR
10:44 62.8 °F /  17.1 °C 39.9 °F /  4.4 °C 30.4in /  1028.3hPa West 3.1mph /  5.0km/h 6.9mph /  11.1km/h 43% 0in /  0.0mm CLR
10:49 63 °F /  17.2 °C 39.6 °F /  4.2 °C 30.4in /  1027.9hPa SW 4.3mph /  6.9km/h 6.9mph /  11.1km/h 42% 0in /  0.0mm CLR
10:54 63.7 °F /  17.6 °C 40.1 °F /  4.5 °C 30.4in /  1027.9hPa SW 4.3mph /  6.9km/h 6.9mph /  11.1km/h 42% 0in /  0.0mm CLR
10:59 64.2 °F /  17.9 °C 39.9 °F /  4.4 °C 30.4in /  1027.9hPa SW 5.2mph /  8.4km/h 6.4mph /  10.3km/h 41% 0in /  0.0mm CLR
11:04 64.9 °F /  18.3 °C 39.9 °F /  4.4 °C 30.4in /  1027.8hPa SSW 5.2mph /  8.4km/h 8.1mph /  13.0km/h 40% 0in /  0.0mm CLR
11:09 65.5 °F /  18.6 °C 39.9 °F /  4.4 °C 30.4in /  1027.8hPa South 5.2mph /  8.4km/h 8.1mph /  13.0km/h 39% 0in /  0.0mm CLR
11:14 66 °F /  18.9 °C 40.3 °F /  4.6 °C 30.4in /  1027.8hPa SSW 5.2mph /  8.4km/h 9.2mph /  14.8km/h 39% 0in /  0.0mm CLR
11:19 66.6 °F /  19.2 °C 40.1 °F /  4.5 °C 30.3in /  1027.6hPa SW 5.2mph /  8.4km/h 6.9mph /  11.1km/h 38% 0in /  0.0mm CLR
11:24 66.9 °F /  19.4 °C 39.7 °F /  4.3 °C 30.3in /  1027.6hPa SSE 5.2mph /  8.4km/h 6.9mph /  11.1km/h 37% 0in /  0.0mm CLR
11:29 67.6 °F /  19.8 °C 40.5 °F /  4.7 °C 30.3in /  1027.6hPa South 4mph /  6.4km/h 7.6mph /  12.2km/h 37% 0in /  0.0mm CLR
11:34 68.4 °F /  20.2 °C 40.5 °F /  4.7 °C 30.3in /  1027.4hPa SSW 4mph /  6.4km/h 5.8mph /  9.3km/h 36% 0in /  0.0mm CLR
11:39 68.5 °F /  20.3 °C 40.5 °F /  4.7 °C 30.3in /  1027.4hPa SW 4.7mph /  7.6km/h 6.9mph /  11.1km/h 36% 0in /  0.0mm CLR
11:44 68.9 °F /  20.5 °C 40.8 °F /  4.9 °C 30.3in /  1027.4hPa SSW 4.7mph /  7.6km/h 4.6mph /  7.4km/h 36% 0in /  0.0mm CLR
11:49 69.4 °F /  20.8 °C 40.6 °F /  4.8 °C 30.3in /  1027.2hPa SSW 4.3mph /  6.9km/h 5.9mph /  9.5km/h 35% 0in /  0.0mm CLR
11:54 70 °F /  21.1 °C 40.3 °F /  4.6 °C 30.3in /  1027.2hPa SSW 4.3mph /  6.9km/h 8.1mph /  13.0km/h 34% 0in /  0.0mm CLR
12:00 70.2 °F /  21.2 °C 40.5 °F /  4.7 °C 30.3in /  1027.2hPa South 5mph /  8.0km/h 7mph /  11.3km/h 34% 0in /  0.0mm CLR
12:05 70.7 °F /  21.5 °C 40.8 °F /  4.9 °C 30.3in /  1026.9hPa SW 4.7mph /  7.6km/h 8.1mph /  13.0km/h 34% 0in /  0.0mm CLR
12:09 70.9 °F /  21.6 °C 41.2 °F /  5.1 °C 30.3in /  1026.9hPa West 4.7mph /  7.6km/h 8.1mph /  13.0km/h 34% 0in /  0.0mm CLR
12:14 70.9 °F /  21.6 °C 41.2 °F /  5.1 °C 30.3in /  1026.9hPa NW 4.7mph /  7.6km/h 5.8mph /  9.3km/h 34% 0in /  0.0mm CLR
12:19 71.4 °F /  21.9 °C 41.5 °F /  5.3 °C 30.3in /  1026.7hPa SW 3.6mph /  5.8km/h 8.1mph /  13.0km/h 34% 0in /  0.0mm CLR
12:24 72 °F /  22.2 °C 42.1 °F /  5.6 °C 30.3in /  1026.7hPa WSW 3.6mph /  5.8km/h 5.8mph /  9.3km/h 34% 0in /  0.0mm CLR
12:29 72.5 °F /  22.5 °C 41.7 °F /  5.4 °C 30.3in /  1026.7hPa West 3.1mph /  5.0km/h 8.1mph /  13.0km/h 33% 0in /  0.0mm CLR
12:34 72.5 °F /  22.5 °C 41.7 °F /  5.4 °C 30.3in /  1026.4hPa WSW 3.1mph /  5.0km/h 8.1mph /  13.0km/h 33% 0in /  0.0mm CLR
12:39 72.9 °F /  22.7 °C 42.1 °F /  5.6 °C 30.3in /  1026.4hPa WNW 4mph /  6.4km/h 6.9mph /  11.1km/h 33% 0in /  0.0mm CLR
12:44 73.2 °F /  22.9 °C 42.4 °F /  5.8 °C 30.3in /  1026.4hPa South 4mph /  6.4km/h 4.7mph /  7.6km/h 33% 0in /  0.0mm CLR
12:49 73.8 °F /  23.2 °C 42.1 °F /  5.6 °C 30.3in /  1026.2hPa SE 4.3mph /  6.9km/h 5.8mph /  9.3km/h 32% 0in /  0.0mm CLR
12:54 73.9 °F /  23.3 °C 42.3 °F /  5.7 °C 30.3in /  1026.2hPa NW 4.3mph /  6.9km/h 3.6mph /  5.8km/h 32% 0in /  0.0mm CLR
12:59 74.1 °F /  23.4 °C 42.4 °F /  5.8 °C 30.3in /  1026.2hPa West 3.6mph /  5.8km/h 6.9mph /  11.1km/h 32% 0in /  0.0mm CLR
13:04 73.9 °F /  23.3 °C 42.3 °F /  5.7 °C 30.3in /  1025.9hPa WNW 3.6mph /  5.8km/h 4.6mph /  7.4km/h 32% 0in /  0.0mm CLR
13:10 74.1 °F /  23.4 °C 42.3 °F /  5.7 °C 30.3in /  1025.9hPa SW 5mph /  8.0km/h 10mph /  16.1km/h 32% 0in /  0.0mm CLR
13:14 74.3 °F /  23.5 °C 42.4 °F /  5.8 °C 30.3in /  1025.9hPa SW 4.7mph /  7.6km/h 4.6mph /  7.4km/h 32% 0in /  0.0mm CLR
13:19 74.8 °F /  23.8 °C 43 °F /  6.1 °C 30.3in /  1025.6hPa South 3.6mph /  5.8km/h 9.2mph /  14.8km/h 32% 0in /  0.0mm CLR
13:24 75.4 °F /  24.1 °C 42.6 °F /  5.9 °C 30.3in /  1025.6hPa SE 3.6mph /  5.8km/h 5.8mph /  9.3km/h 31% 0in /  0.0mm CLR
13:29 75.6 °F /  24.2 °C 42.8 °F /  6.0 °C 30.3in /  1025.6hPa SW 4.7mph /  7.6km/h 6.9mph /  11.1km/h 31% 0in /  0.0mm CLR
13:34 75.6 °F /  24.2 °C 42.8 °F /  6.0 °C 30.3in /  1025.3hPa WSW 4.7mph /  7.6km/h 8.1mph /  13.0km/h 31% 0in /  0.0mm CLR
13:39 75.7 °F /  24.3 °C 43 °F /  6.1 °C 30.3in /  1025.3hPa SW 4.7mph /  7.6km/h 6.9mph /  11.1km/h 31% 0in /  0.0mm CLR
13:44 75.9 °F /  24.4 °C 43.2 °F /  6.2 °C 30.3in /  1025.3hPa WSW 4.7mph /  7.6km/h 5.8mph /  9.3km/h 31% 0in /  0.0mm CLR
13:49 76.3 °F /  24.6 °C 42.6 °F /  5.9 °C 30.3in /  1024.9hPa West 5.2mph /  8.4km/h 9.2mph /  14.8km/h 30% 0in /  0.0mm CLR
13:54 76.5 °F /  24.7 °C 42.6 °F /  5.9 °C 30.3in /  1024.9hPa NW 5.2mph /  8.4km/h 8.1mph /  13.0km/h 30% 0in /  0.0mm CLR
13:59 76.6 °F /  24.8 °C 43 °F /  6.1 °C 30.3in /  1024.9hPa WNW 5.4mph /  8.7km/h 8.1mph /  13.0km/h 30% 0in /  0.0mm CLR
14:04 76.6 °F /  24.8 °C 43 °F /  6.1 °C 30.3in /  1024.6hPa NW 5.4mph /  8.7km/h 5.2mph /  8.4km/h 30% 0in /  0.0mm CLR
14:09 77.2 °F /  25.1 °C 44.2 °F /  6.8 °C 30.3in /  1024.6hPa ENE 3.1mph /  5.0km/h 5.8mph /  9.3km/h 31% 0in /  0.0mm CLR
14:15 77.4 °F /  25.2 °C 43.5 °F /  6.4 °C 30.3in /  1024.6hPa NW 3mph /  4.8km/h 10mph /  16.1km/h 30% 0in /  0.0mm CLR
14:19 77.2 °F /  25.1 °C 43.3 °F /  6.3 °C 30.3in /  1024.3hPa SW 4mph /  6.4km/h 6.9mph /  11.1km/h 30% 0in /  0.0mm CLR
14:24 77.4 °F /  25.2 °C 43.5 °F /  6.4 °C 30.3in /  1024.3hPa West 4mph /  6.4km/h 7.4mph /  11.9km/h 30% 0in /  0.0mm CLR
14:29 77.5 °F /  25.3 °C 42.8 °F /  6.0 °C 30.3in /  1024.3hPa WNW 4.3mph /  6.9km/h 4.6mph /  7.4km/h 29% 0in /  0.0mm CLR
14:34 77.7 °F /  25.4 °C 43 °F /  6.1 °C 30.2in /  1024.1hPa SW 4.3mph /  6.9km/h 5.8mph /  9.3km/h 29% 0in /  0.0mm CLR
14:39 78.3 °F /  25.7 °C 43.3 °F /  6.3 °C 30.2in /  1024.1hPa South 3.6mph /  5.8km/h 6.9mph /  11.1km/h 29% 0in /  0.0mm CLR
14:45 78.4 °F /  25.8 °C 43.5 °F /  6.4 °C 30.2in /  1024.1hPa WSW 3mph /  4.8km/h 11mph /  17.7km/h 29% 0in /  0.0mm CLR
14:49 78.3 °F /  25.7 °C 43.3 °F /  6.3 °C 30.2in /  1023.7hPa SW 5.2mph /  8.4km/h 10.4mph /  16.7km/h 29% 0in /  0.0mm CLR
14:54 78.3 °F /  25.7 °C 42.4 °F /  5.8 °C 30.2in /  1023.7hPa WSW 5.2mph /  8.4km/h 3.5mph /  5.6km/h 28% 0in /  0.0mm CLR
14:59 78.6 °F /  25.9 °C 42.8 °F /  6.0 °C 30.2in /  1023.7hPa SSW 4mph /  6.4km/h 9.7mph /  15.6km/h 28% 0in /  0.0mm CLR
15:05 78.6 °F /  25.9 °C 42.8 °F /  6.0 °C 30.2in /  1023.6hPa SSW 5mph /  8.0km/h 12mph /  19.3km/h 28% 0in /  0.0mm CLR
15:09 78.4 °F /  25.8 °C 42.6 °F /  5.9 °C 30.2in /  1023.6hPa ENE 6.4mph /  10.3km/h 6.2mph /  10.0km/h 28% 0in /  0.0mm CLR
15:14 78.6 °F /  25.9 °C 42.8 °F /  6.0 °C 30.2in /  1023.6hPa SE 6.4mph /  10.3km/h 8.1mph /  13.0km/h 28% 0in /  0.0mm CLR
15:19 78.6 °F /  25.9 °C 42.8 °F /  6.0 °C 30.2in /  1023.4hPa SE 5.4mph /  8.7km/h 9.2mph /  14.8km/h 28% 0in /  0.0mm CLR
15:24 78.8 °F /  26.0 °C 43 °F /  6.1 °C 30.2in /  1023.4hPa SSW 5.4mph /  8.7km/h 8.7mph /  14.0km/h 28% 0in /  0.0mm CLR
15:30 78.6 °F /  25.9 °C 42.8 °F /  6.0 °C 30.2in /  1023.4hPa South 6.4mph /  10.3km/h 9.2mph /  14.8km/h 28% 0in /  0.0mm CLR
15:34 78.8 °F /  26.0 °C 43 °F /  6.1 °C 30.2in /  1023.1hPa ESE 6.4mph /  10.3km/h 6.9mph /  11.1km/h 28% 0in /  0.0mm CLR
15:39 79.2 °F /  26.2 °C 43.2 °F /  6.2 °C 30.2in /  1023.1hPa SSW 4.7mph /  7.6km/h 5.8mph /  9.3km/h 28% 0in /  0.0mm CLR
15:44 79.5 °F /  26.4 °C 42.6 °F /  5.9 °C 30.2in /  1023.1hPa SSW 4.7mph /  7.6km/h 8.5mph /  13.7km/h 27% 0in /  0.0mm CLR
15:50 79.5 °F /  26.4 °C 42.6 °F /  5.9 °C 30.2in /  1022.9hPa SE 4.7mph /  7.6km/h 5.8mph /  9.3km/h 27% 0in /  0.0mm CLR
15:54 79.2 °F /  26.2 °C 42.3 °F /  5.7 °C 30.2in /  1022.9hPa ESE 4.7mph /  7.6km/h 8.1mph /  13.0km/h 27% 0in /  0.0mm CLR
15:59 79.3 °F /  26.3 °C 43.3 °F /  6.3 °C 30.2in /  1022.9hPa SSE 5.4mph /  8.7km/h 6.9mph /  11.1km/h 28% 0in /  0.0mm CLR
16:05 79.7 °F /  26.5 °C 42.8 °F /  6.0 °C 30.2in /  1022.9hPa SSE 5.4mph /  8.7km/h 2.3mph /  3.7km/h 27% 0in /  0.0mm CLR
16:09 80.2 °F /  26.8 °C 43.2 °F /  6.2 °C 30.2in /  1022.9hPa WSW 4mph /  6.4km/h 8.7mph /  14.0km/h 27% 0in /  0.0mm CLR
16:14 80.1 °F /  26.7 °C 43.2 °F /  6.2 °C 30.2in /  1022.9hPa SSW 4mph /  6.4km/h 9.2mph /  14.8km/h 27% 0in /  0.0mm CLR
16:19 80.1 °F /  26.7 °C 43.2 °F /  6.2 °C 30.2in /  1022.7hPa WSW 5.9mph /  9.5km/h 8.1mph /  13.0km/h 27% 0in /  0.0mm CLR
16:25 79.9 °F /  26.6 °C 43 °F /  6.1 °C 30.2in /  1022.7hPa SSW 6mph /  9.7km/h 8mph /  12.9km/h 27% 0in /  0.0mm CLR
16:29 79.7 °F /  26.5 °C 44.6 °F /  7.0 °C 30.2in /  1022.7hPa South 5.4mph /  8.7km/h 11.5mph /  18.5km/h 29% 0in /  0.0mm CLR
16:34 79.3 °F /  26.3 °C 45.1 °F /  7.3 °C 30.2in /  1022.5hPa ESE 5.4mph /  8.7km/h 11.4mph /  18.3km/h 30% 0in /  0.0mm CLR
16:40 79.2 °F /  26.2 °C 45 °F /  7.2 °C 30.2in /  1022.5hPa East 6.9mph /  11.1km/h 12.7mph /  20.4km/h 30% 0in /  0.0mm CLR
16:45 78.8 °F /  26.0 °C 44.8 °F /  7.1 °C 30.2in /  1022.5hPa SE 6.9mph /  11.1km/h 15mph /  24.1km/h 30% 0in /  0.0mm CLR
16:49 78.4 °F /  25.8 °C 44.4 °F /  6.9 °C 30.2in /  1022.4hPa ESE 8.7mph /  14.0km/h 15mph /  24.1km/h 30% 0in /  0.0mm CLR
16:55 78.3 °F /  25.7 °C 45.1 °F /  7.3 °C 30.2in /  1022.4hPa SE 9mph /  14.5km/h 16mph /  25.7km/h 31% 0in /  0.0mm CLR
16:59 78.3 °F /  25.7 °C 45.1 °F /  7.3 °C 30.2in /  1022.4hPa SSE 9.2mph /  14.8km/h 13.8mph /  22.2km/h 31% 0in /  0.0mm CLR
17:04 77.9 °F /  25.5 °C 44.8 °F /  7.1 °C 30.2in /  1022.4hPa East 9.2mph /  14.8km/h 11.5mph /  18.5km/h 31% 0in /  0.0mm CLR
17:09 77.7 °F /  25.4 °C 44.8 °F /  7.1 °C 30.2in /  1022.4hPa SE 9.2mph /  14.8km/h 10.4mph /  16.7km/h 31% 0in /  0.0mm CLR
17:15 77.7 °F /  25.4 °C 44.8 °F /  7.1 °C 30.2in /  1022.4hPa SSE 9mph /  14.5km/h 14mph /  22.5km/h 31% 0in /  0.0mm CLR
17:20 78.3 °F /  25.7 °C 45.1 °F /  7.3 °C 30.2in /  1022.3hPa ESE 7.6mph /  12.2km/h 8.1mph /  13.0km/h 31% 0in /  0.0mm CLR
17:24 78.3 °F /  25.7 °C 44.2 °F /  6.8 °C 30.2in /  1022.3hPa ESE 7.6mph /  12.2km/h 11.5mph /  18.5km/h 30% 0in /  0.0mm CLR
17:29 78.1 °F /  25.6 °C 45 °F /  7.2 °C 30.2in /  1022.3hPa South 6.9mph /  11.1km/h 9.2mph /  14.8km/h 31% 0in /  0.0mm CLR
17:35 77.7 °F /  25.4 °C 44.8 °F /  7.1 °C 30.2in /  1022.4hPa SE 6.9mph /  11.1km/h 11.5mph /  18.5km/h 31% 0in /  0.0mm CLR
17:40 77.4 °F /  25.2 °C 45.1 °F /  7.3 °C 30.2in /  1022.4hPa SSE 6.9mph /  11.1km/h 9.2mph /  14.8km/h 32% 0in /  0.0mm CLR
17:45 76.8 °F /  24.9 °C 44.8 °F /  7.1 °C 30.2in /  1022.4hPa ESE 7mph /  11.3km/h 13mph /  20.9km/h 32% 0in /  0.0mm CLR
17:50 76.5 °F /  24.7 °C 44.4 °F /  6.9 °C 30.2in /  1022.4hPa ESE 7.4mph /  11.9km/h 10.4mph /  16.7km/h 32% 0in /  0.0mm CLR
17:55 76.3 °F /  24.6 °C 44.2 °F /  6.8 °C 30.2in /  1022.4hPa ESE 7mph /  11.3km/h 12mph /  19.3km/h 32% 0in /  0.0mm CLR
17:59 76.1 °F /  24.5 °C 44.1 °F /  6.7 °C 30.2in /  1022.4hPa East 6.4mph /  10.3km/h 10.4mph /  16.7km/h 32% 0in /  0.0mm CLR
18:05 75.9 °F /  24.4 °C 43.9 °F /  6.6 °C 30.2in /  1022.5hPa ESE 7mph /  11.3km/h 10mph /  16.1km/h 32% 0in /  0.0mm CLR
18:09 75.7 °F /  24.3 °C 44.6 °F /  7.0 °C 30.2in /  1022.5hPa SE 6.4mph /  10.3km/h 11.5mph /  18.5km/h 33% 0in /  0.0mm CLR
18:15 75.4 °F /  24.1 °C 44.2 °F /  6.8 °C 30.2in /  1022.5hPa ESE 7mph /  11.3km/h 13mph /  20.9km/h 33% 0in /  0.0mm CLR
18:20 75.2 °F /  24.0 °C 44.1 °F /  6.7 °C 30.2in /  1022.6hPa ESE 7mph /  11.3km/h 12mph /  19.3km/h 33% 0in /  0.0mm CLR
18:25 75.2 °F /  24.0 °C 44.1 °F /  6.7 °C 30.2in /  1022.6hPa South 7.4mph /  11.9km/h 4.6mph /  7.4km/h 33% 0in /  0.0mm CLR
18:29 75.4 °F /  24.1 °C 44.2 °F /  6.8 °C 30.2in /  1022.6hPa South 4mph /  6.4km/h 3.5mph /  5.6km/h 33% 0in /  0.0mm CLR
18:34 75.6 °F /  24.2 °C 44.4 °F /  6.9 °C 30.2in /  1022.8hPa South 4mph /  6.4km/h 4.6mph /  7.4km/h 33% 0in /  0.0mm CLR
18:40 75.6 °F /  24.2 °C 44.4 °F /  6.9 °C 30.2in /  1022.8hPa South 2mph /  3.2km/h 5mph /  8.0km/h 33% 0in /  0.0mm CLR
18:45 75.6 °F /  24.2 °C 44.4 °F /  6.9 °C 30.2in /  1022.8hPa South 2mph /  3.2km/h 2mph /  3.2km/h 33% 0in /  0.0mm CLR
18:49 75.6 °F /  24.2 °C 44.4 °F /  6.9 °C 30.2in /  1022.8hPa WSW 1.4mph /  2.3km/h 3.5mph /  5.6km/h 33% 0in /  0.0mm CLR
18:55 75.2 °F /  24.0 °C 44.1 °F /  6.7 °C 30.2in /  1022.8hPa SW 1mph /  1.6km/h 5mph /  8.0km/h 33% 0in /  0.0mm CLR
18:59 74.7 °F /  23.7 °C 44.4 °F /  6.9 °C 30.2in /  1022.8hPa NNE 2.9mph /  4.7km/h 3.5mph /  5.6km/h 34% 0in /  0.0mm CLR
19:04 74.1 °F /  23.4 °C 44.8 °F /  7.1 °C 30.2in /  1023.0hPa NNE 2.9mph /  4.7km/h 3.1mph /  5.0km/h 35% 0in /  0.0mm CLR
19:09 73.8 °F /  23.2 °C 44.4 °F /  6.9 °C 30.2in /  1023.0hPa NNW 2mph /  3.2km/h 4.7mph /  7.6km/h 35% 0in /  0.0mm CLR
19:15 73.2 °F /  22.9 °C 44.8 °F /  7.1 °C 30.2in /  1023.0hPa NNW 2mph /  3.2km/h 4.6mph /  7.4km/h 36% 0in /  0.0mm CLR
19:19 72.7 °F /  22.6 °C 44.2 °F /  6.8 °C 30.2in /  1023.2hPa North 3.1mph /  5.0km/h 4.6mph /  7.4km/h 36% 0in /  0.0mm CLR
19:25 72.1 °F /  22.3 °C 43.9 °F /  6.6 °C 30.2in /  1023.2hPa North 3mph /  4.8km/h 5mph /  8.0km/h 36% 0in /  0.0mm CLR
19:30 72 °F /  22.2 °C 44.2 °F /  6.8 °C 30.2in /  1023.2hPa NE 2.9mph /  4.7km/h 3.5mph /  5.6km/h 37% 0in /  0.0mm CLR
19:35 71.8 °F /  22.1 °C 44.1 °F /  6.7 °C 30.2in /  1023.5hPa NW 2.9mph /  4.7km/h 4.6mph /  7.4km/h 37% 0in /  0.0mm CLR
19:39 71.4 °F /  21.9 °C 43.9 °F /  6.6 °C 30.2in /  1023.5hPa NW 2.4mph /  3.9km/h 3.5mph /  5.6km/h 37% 0in /  0.0mm CLR
19:45 71.2 °F /  21.8 °C 44.4 °F /  6.9 °C 30.2in /  1023.5hPa NW 2mph /  3.2km/h 4mph /  6.4km/h 38% 0in /  0.0mm CLR
19:50 71.1 °F /  21.7 °C 44.2 °F /  6.8 °C 30.2in /  1023.6hPa NW 2.4mph /  3.9km/h 3.5mph /  5.6km/h 38% 0in /  0.0mm CLR
19:55 70.7 °F /  21.5 °C 44.4 °F /  6.9 °C 30.2in /  1023.6hPa NW 2.4mph /  3.9km/h 3.5mph /  5.6km/h 39% 0in /  0.0mm CLR
19:59 70.3 °F /  21.3 °C 45 °F /  7.2 °C 30.2in /  1023.6hPa NW 1.8mph /  2.9km/h 4.6mph /  7.4km/h 40% 0in /  0.0mm CLR
20:05 70 °F /  21.1 °C 45.1 °F /  7.3 °C 30.2in /  1023.6hPa NW 2mph /  3.2km/h 5mph /  8.0km/h 41% 0in /  0.0mm CLR
20:09 69.6 °F /  20.9 °C 45 °F /  7.2 °C 30.2in /  1023.6hPa NW 1.8mph /  2.9km/h 3.5mph /  5.6km/h 41% 0in /  0.0mm CLR
20:15 69.3 °F /  20.7 °C 45.9 °F /  7.7 °C 30.2in /  1023.6hPa NW 2mph /  3.2km/h 6mph /  9.7km/h 43% 0in /  0.0mm CLR
20:19 68.7 °F /  20.4 °C 45.9 °F /  7.7 °C 30.2in /  1023.7hPa NNE 2.4mph /  3.9km/h 4.6mph /  7.4km/h 44% 0in /  0.0mm CLR
20:25 68 °F /  20.0 °C 45.1 °F /  7.3 °C 30.2in /  1023.7hPa North 2mph /  3.2km/h 8mph /  12.9km/h 44% 0in /  0.0mm CLR
20:30 67.3 °F /  19.6 °C 46.4 °F /  8.0 °C 30.2in /  1023.7hPa East 4.7mph /  7.6km/h 9.2mph /  14.8km/h 47% 0in /  0.0mm CLR
20:35 66.7 °F /  19.3 °C 46.4 °F /  8.0 °C 30.2in /  1023.8hPa NNE 4.7mph /  7.6km/h 8.1mph /  13.0km/h 48% 0in /  0.0mm CLR
20:40 66 °F /  18.9 °C 46.9 °F /  8.3 °C 30.2in /  1023.8hPa NNE 6mph /  9.7km/h 12mph /  19.3km/h 50% 0in /  0.0mm CLR
20:45 65.5 °F /  18.6 °C 47.5 °F /  8.6 °C 30.2in /  1023.8hPa NNE 5.9mph /  9.5km/h 6.9mph /  11.1km/h 52% 0in /  0.0mm CLR
20:50 64.9 °F /  18.3 °C 48 °F /  8.9 °C 30.2in /  1023.9hPa NNE 6mph /  9.7km/h 7mph /  11.3km/h 54% 0in /  0.0mm CLR
20:54 64.8 °F /  18.2 °C 48.2 °F /  9.0 °C 30.2in /  1023.9hPa North 5.9mph /  9.5km/h 4.6mph /  7.4km/h 55% 0in /  0.0mm CLR
21:00 64.4 °F /  18.0 °C 48.4 °F /  9.1 °C 30.2in /  1023.9hPa North 3mph /  4.8km/h 6mph /  9.7km/h 56% 0in /  0.0mm CLR
21:05 64 °F /  17.8 °C 48.9 °F /  9.4 °C 30.2in /  1024.2hPa North 3mph /  4.8km/h 6mph /  9.7km/h 58% 0in /  0.0mm CLR
21:10 63.7 °F /  17.6 °C 49.1 °F /  9.5 °C 30.2in /  1024.2hPa NNE 3mph /  4.8km/h 7mph /  11.3km/h 59% 0in /  0.0mm CLR
21:15 63.3 °F /  17.4 °C 49.3 °F /  9.6 °C 30.2in /  1024.2hPa NNE 3mph /  4.8km/h 8mph /  12.9km/h 60% 0in /  0.0mm CLR
21:20 63.3 °F /  17.4 °C 49.3 °F /  9.6 °C 30.3in /  1024.3hPa North 5mph /  8.0km/h 6mph /  9.7km/h 60% 0in /  0.0mm CLR
21:25 63.1 °F /  17.3 °C 48.9 °F /  9.4 °C 30.3in /  1024.3hPa NNW 5mph /  8.0km/h 8mph /  12.9km/h 60% 0in /  0.0mm CLR
21:30 63 °F /  17.2 °C 48.9 °F /  9.4 °C 30.3in /  1024.3hPa NW 2.9mph /  4.7km/h 3.5mph /  5.6km/h 60% 0in /  0.0mm CLR
21:35 63 °F /  17.2 °C 49.3 °F /  9.6 °C 30.3in /  1024.5hPa NW 2mph /  3.2km/h 6mph /  9.7km/h 61% 0in /  0.0mm CLR
21:39 62.8 °F /  17.1 °C 49.6 °F /  9.8 °C 30.3in /  1024.5hPa NNE 2.4mph /  3.9km/h 4.7mph /  7.6km/h 62% 0in /  0.0mm CLR
21:45 62.4 °F /  16.9 °C 49.3 °F /  9.6 °C 30.3in /  1024.5hPa NNE 2mph /  3.2km/h 5mph /  8.0km/h 62% 0in /  0.0mm CLR
21:49 62.4 °F /  16.9 °C 49.6 °F /  9.8 °C 30.3in /  1024.5hPa NW 2.4mph /  3.9km/h 3.5mph /  5.6km/h 63% 0in /  0.0mm CLR
21:55 62.2 °F /  16.8 °C 49.5 °F /  9.7 °C 30.3in /  1024.5hPa NW 2mph /  3.2km/h 5mph /  8.0km/h 63% 0in /  0.0mm CLR
22:00 62.1 °F /  16.7 °C 49.3 °F /  9.6 °C 30.3in /  1024.5hPa NW 2mph /  3.2km/h 5mph /  8.0km/h 63% 0in /  0.0mm CLR
22:05 61.9 °F /  16.6 °C 49.6 °F /  9.8 °C 30.3in /  1024.7hPa NW 2mph /  3.2km/h 5mph /  8.0km/h 64% 0in /  0.0mm CLR
22:10 61.7 °F /  16.5 °C 49.8 °F /  9.9 °C 30.3in /  1024.7hPa NW 2mph /  3.2km/h 5mph /  8.0km/h 65% 0in /  0.0mm CLR
22:15 61.5 °F /  16.4 °C 49.6 °F /  9.8 °C 30.3in /  1024.7hPa NW 2mph /  3.2km/h   65% 0in /  0.0mm CLR
22:19 61.5 °F /  16.4 °C 50.2 °F /  10.1 °C 30.3in /  1024.8hPa NW 1.4mph /  2.3km/h 2.3mph /  3.7km/h 66% 0in /  0.0mm CLR
22:25 61.3 °F /  16.3 °C 49.8 °F /  9.9 °C 30.3in /  1024.8hPa NW 1mph /  1.6km/h 4mph /  6.4km/h 66% 0in /  0.0mm CLR
22:30 61.3 °F /  16.3 °C 49.8 °F /  9.9 °C 30.3in /  1024.8hPa NW 1.8mph /  2.9km/h   66% 0in /  0.0mm CLR
22:35 61.3 °F /  16.3 °C 50.4 °F /  10.2 °C 30.3in /  1024.9hPa NW 2mph /  3.2km/h 2mph /  3.2km/h 67% 0in /  0.0mm CLR
22:39 61.2 °F /  16.2 °C 50.2 °F /  10.1 °C 30.3in /  1024.9hPa Calm   2.3mph /  3.7km/h 67% 0in /  0.0mm CLR
22:45 61 °F /  16.1 °C 50 °F /  10.0 °C 30.3in /  1024.9hPa Calm   2mph /  3.2km/h 67% 0in /  0.0mm CLR
22:50 61 °F /  16.1 °C 49.8 °F /  9.9 °C 30.3in /  1025.0hPa Calm     67% 0in /  0.0mm CLR
22:55 60.8 °F /  16.0 °C 49.8 °F /  9.9 °C 30.3in /  1025.0hPa Calm     67% 0in /  0.0mm CLR
22:59 60.6 °F /  15.9 °C 50 °F /  10.0 °C 30.3in /  1025.0hPa Calm   2.3mph /  3.7km/h 68% 0in /  0.0mm CLR
23:05 60.6 °F /  15.9 °C 50 °F /  10.0 °C 30.3in /  1025.0hPa Calm     68% 0in /  0.0mm CLR
23:10 60.6 °F /  15.9 °C 50 °F /  10.0 °C 30.3in /  1025.0hPa Calm     68% 0in /  0.0mm CLR
23:15 60.4 °F /  15.8 °C 49.8 °F /  9.9 °C 30.3in /  1025.0hPa Calm     68% 0in /  0.0mm CLR
23:20 60.4 °F /  15.8 °C 50.2 °F /  10.1 °C 30.3in /  1025.0hPa Calm   3mph /  4.8km/h 69% 0in /  0.0mm CLR
23:25 60.3 °F /  15.7 °C 50.5 °F /  10.3 °C 30.3in /  1025.0hPa Calm   5mph /  8.0km/h 70% 0in /  0.0mm CLR
23:30 60.3 °F /  15.7 °C 50.4 °F /  10.2 °C 30.3in /  1025.0hPa NW 1.8mph /  2.9km/h   70% 0in /  0.0mm CLR
23:35 60.1 °F /  15.6 °C 50.4 °F /  10.2 °C 30.3in /  1025.2hPa NW 2mph /  3.2km/h   70% 0in /  0.0mm CLR
23:39 59.9 °F /  15.5 °C 50.5 °F /  10.3 °C 30.3in /  1025.2hPa Calm     71% 0in /  0.0mm CLR
23:45 59.7 °F /  15.4 °C 50.4 °F /  10.2 °C 30.3in /  1025.2hPa Calm   1mph /  1.6km/h 71% 0in /  0.0mm CLR
23:50 59.5 °F /  15.3 °C 50.5 °F /  10.3 °C 30.3in /  1025.1hPa Calm   1mph /  1.6km/h 72% 0in /  0.0mm CLR
23:55 59.4 °F /  15.2 °C 50.4 °F /  10.2 °C 30.3in /  1025.1hPa Calm   2.4mph /  3.9km/h 72% 0in /  0.0mm CLR
Murcia-Puente Tocinos, España
Compliments of Weather Underground - 2.75 mb

La estación de MeteoMurcia.com, publica sus datos en los siguientes proyectos:

Weather Underground PWS IMURCIAP2 Meteoclimatic www.awekas.at

W3Counter
Web Analytics